• Join FlightAware (Why Join?)
  • Login
  • US Flag 
12:24PM EDT


 

Airport Tracker/Info


-or-


 

Live Flight TrackerFlight Track Log ✈ ANO332 ✈ 06-Jul-2013 ✈ YPDN / DRW - YPKU / KNX

Flight Track Log - Related Links

Times and Time Zones

All times are in EDT time to prevent confusion due to time zone crossing. See the ANO332 flight status page for this flight to view local times or setup timezone preferences in your user account.

Time Position Orientation Groundspeed Altitude Reporting Facility
EDT Latitude Longitude Course Direction KTS MPH feet Rate Location/Type
09:26PM -12.4130 130.8770 108° East 59 68 100  Level FlightAware
09:26PM -12.4190 130.8940 110° East 162 186 200 1,200 Climbing FlightAware
09:27PM -12.4230 130.9050 110° East 161 185 1,000 2,700 Climbing FlightAware
09:27PM -12.4270 130.9190 106° East 149 171 1,900 1,740 Climbing FlightAware
09:27PM -12.4350 130.9410 106° East 184 212 2,500 1,260 Climbing FlightAware
09:27PM -12.4355 130.9427 106° East 161 185 2,600 3,000 Climbing Aus ATC (RADAR)
09:28PM -12.4420 130.9640 107° East 187 215 3,800 1,740 Climbing FlightAware
09:28PM -12.4540 130.9920 114° Southeast 237 273 4,200 1,200 Climbing FlightAware
09:29PM -12.4670 131.0030 140° Southeast 248 285 4,700 2,400 Climbing FlightAware
09:29PM -12.4860 131.0050 174° South 259 298 5,400 2,580 Climbing FlightAware
09:29PM -12.5040 130.9990 198° South 283 326 6,000 1,920 Climbing FlightAware
09:29PM -12.5130 130.9900 224° Southwest 294 338 6,300 2,400 Climbing FlightAware
09:30PM -12.5506 130.9291 224° Southwest 298 343 8,500 2,280 Climbing Aus ATC (RADAR)
09:30PM -12.5610 130.9130 224° Southwest 305 351 8,900 2,160 Climbing FlightAware
09:31PM -12.5890 130.8683 224° Southwest 308 354 10,300 2,160 Climbing Aus ATC (RADAR)
09:31PM -12.6010 130.8490 224° Southwest 327 376 10,500 1,440 Climbing FlightAware
09:32PM -12.6350 130.7950 237° Southwest 335 386 11,600 1,920 Climbing FlightAware
09:33PM -12.6690 130.7420 237° Southwest 333 383 13,100 1,980 Climbing FlightAware
09:33PM -12.6990 130.6940 237° Southwest 344 396 14,100 1,920 Climbing FlightAware
09:34PM -12.7340 130.6380 237° Southwest 341 392 15,500 1,860 Climbing FlightAware
09:35PM -12.7760 130.5780 237° Southwest 346 398 16,800 1,800 Climbing FlightAware
09:35PM -12.7739 130.5766 237° Southwest 347 399 16,900 1,860 Climbing Aus ATC (RADAR)
09:35PM -12.8230 130.5440 215° Southwest 355 409 17,900 1,440 Climbing FlightAware
09:36PM -12.8790 130.5100 211° Southwest 358 412 18,700 1,260 Climbing FlightAware
09:37PM -12.9470 130.4680 211° Southwest 364 419 19,700 1,260 Climbing FlightAware
09:37PM -12.9455 130.4679 211° Southwest 369 425 19,700 1,200 Level Aus ATC (RADAR)
09:37PM -13.0053 130.4317 211° Southwest 374 430 20,500 1,200 Climbing Aus ATC (RADAR)
09:37PM -13.0050 130.4320 211° Southwest 378 435 20,500 1,320 Level FlightAware
09:38PM -13.0583 130.3991 211° Southwest 379 436 21,300 1,320 Climbing Aus ATC (RADAR)
09:38PM -13.0670 130.3950 211° Southwest 375 432 21,400 1,200 Climbing FlightAware
09:38PM -13.1119 130.3665 211° Southwest 382 440 22,000 1,320 Climbing Aus ATC (RADAR)
09:39PM -13.1360 130.3520 211° Southwest 379 436 22,400 1,260 Climbing FlightAware
09:39PM -13.1980 130.3140 211° Southwest 382 440 23,200 1,200 Climbing FlightAware
09:40PM -13.2600 130.2760 211° Southwest 392 451 24,000 1,080 Climbing FlightAware
09:40PM -13.3054 130.2476 211° Southwest 392 451 24,500 900 Climbing Aus ATC (RADAR)
09:41PM -13.3220 130.2380 211° Southwest 399 459 24,600 840 Climbing FlightAware
09:41PM -13.3880 130.1980 211° Southwest 398 458 25,200 780 Climbing FlightAware
09:42PM -13.4530 130.1570 212° Southwest 415 478 25,700 900 Climbing FlightAware
09:43PM -13.5190 130.1160 211° Southwest 416 479 26,400 960 Climbing FlightAware
09:43PM -13.5905 130.0710 211° Southwest 416 479 27,100 960 Climbing Aus ATC (RADAR)
09:43PM -13.6020 130.0660 211° Southwest 412 474 27,200 840 Climbing FlightAware
09:44PM -13.6490 130.0350 211° Southwest 420 483 27,600 720 Climbing Aus ATC (RADAR)
09:44PM -13.6680 130.0250 211° Southwest 418 481 27,700 900 Climbing FlightAware
09:45PM -13.7370 129.9820 211° Southwest 428 493 28,400 960 Climbing FlightAware
09:45PM -13.8050 129.9400 211° Southwest 433 498 29,000 900 Climbing FlightAware
09:46PM -13.8630 129.9037 211° Southwest 433 498 29,500 960 Climbing Aus ATC (RADAR)
09:46PM -13.9090 129.8760 211° Southwest 432 497 30,000 420 Climbing FlightAware
09:47PM -13.9660 129.8410 211° Southwest 433 498 30,000  Level FlightAware
09:48PM -14.0330 129.7990 211° Southwest 433 498 30,000  Level FlightAware
09:48PM -14.1265 129.7404 211° Southwest 473 544 30,000  Level Aus ATC (RADAR)
09:49PM -14.0880 129.7650 211° Southwest 433 498 30,000  Level FlightAware
09:49PM -14.1922 129.6995 211° Southwest 472 543 30,000  Level Aus ATC (RADAR)
09:49PM -14.1410 129.7320 211° Southwest 433 498 30,000  Level FlightAware
09:50PM -14.2577 129.6587 211° Southwest 472 543 30,000  Level Aus ATC (RADAR)
09:50PM -14.2110 129.6890 211° Southwest 433 498 30,000  Level FlightAware
09:51PM -14.2640 129.6560 211° Southwest 433 498 30,000  Level FlightAware
09:51PM -14.4175 129.5595 211° Southwest 474 545 30,000  Level Aus ATC (RADAR)
09:51PM -14.3160 129.6240 211° Southwest 433 498 30,000  Level FlightAware
09:52PM -14.4827 129.5188 211° Southwest 471 542 30,000  Level Aus ATC (RADAR)
09:52PM -14.4040 129.5690 211° Southwest 433 498 30,000  Level FlightAware
09:53PM -14.4580 129.5360 211° Southwest 433 498 30,000  Level FlightAware
09:54PM -14.5280 129.4920 211° Southwest 433 498 30,000  Level FlightAware
09:54PM -14.5800 129.4600 211° Southwest 433 498 30,000 -7,200 Level FlightAware
09:54PM -14.7561 129.3485 211° Southwest 440 506 25,700 -9,900 Descending Aus ATC (RADAR)
09:55PM -14.8152 129.3113 211° Southwest 428 493 24,400 5,340 Descending Aus ATC (RADAR)
09:55PM -14.6500 129.4160 211° Southwest 433 498 30,000 6,720 Climbing FlightAware
09:56PM -14.7030 129.3840 210° Southwest 433 498 30,000 -7,680 Level FlightAware
09:56PM -14.9448 129.2299 210° Southwest 407 468 21,600  Descending Aus ATC (RADAR)
09:56PM -14.7550 129.3510 210° Southwest 433 498 30,000 84,000 Climbing FlightAware
09:57PM -15.0420 129.1721 210° Southwest 404 465 -33,360 Descending Aus ATC (RADAR)
10:00PM -15.2255 129.0566 211° Southwest 300 60 Climbing Aus ATC (Calculated)
10:02PM -15.3576 128.9733 211° Southwest  Level Estimated
10:03PM -15.4508 128.9145 211° Southwest  Level Estimated
10:04PM -15.5440 128.8556 211° Southwest  Level Estimated
10:05PM -15.6372 128.7967 211° Southwest  Level Estimated
10:06PM -15.7304 128.7377 211° Southwest  Level Estimated
10:07PM -15.7781 128.7075 211° Southwest  Level Estimated
10:08PM -15.7781 128.7075 North  Level Estimated
10:09PM -15.7781 128.7075 North  Level Estimated
10:09PM -15.7780 128.7074 120° Southeast  Level Aus ATC (Calculated)
10:10PM -15.7781 128.7075 North  Level Estimated
10:11PM -15.7781 128.7075 120° Southeast  Level Estimated
10:12PM -15.7781 128.7075 North  Level Estimated
10:13PM -15.7781 128.7075 North  Level Estimated
10:14PM -15.7781 128.7075 North  Level Estimated